sensor_id;sensor_type;location;lat;lon;timestamp;temperature;humidity
75719;DHT22;64340;48.534;-3.036;2023-08-24T00:00:19;21.20;70.90
75719;DHT22;64340;48.534;-3.036;2023-08-24T00:02:45;21.10;70.90
75719;DHT22;64340;48.534;-3.036;2023-08-24T00:05:10;21.10;70.90
75719;DHT22;64340;48.534;-3.036;2023-08-24T00:07:36;21.10;70.90
75719;DHT22;64340;48.534;-3.036;2023-08-24T00:10:02;21.10;70.90
75719;DHT22;64340;48.534;-3.036;2023-08-24T00:12:29;21.10;70.90
75719;DHT22;64340;48.534;-3.036;2023-08-24T00:14:55;21.10;70.90
75719;DHT22;64340;48.534;-3.036;2023-08-24T00:17:21;21.10;70.80
75719;DHT22;64340;48.534;-3.036;2023-08-24T00:19:48;21.10;70.80
75719;DHT22;64340;48.534;-3.036;2023-08-24T00:22:14;21.10;70.90
75719;DHT22;64340;48.534;-3.036;2023-08-24T00:24:39;21.10;70.80
75719;DHT22;64340;48.534;-3.036;2023-08-24T00:27:05;21.10;70.90
75719;DHT22;64340;48.534;-3.036;2023-08-24T00:29:30;21.10;70.90
75719;DHT22;64340;48.534;-3.036;2023-08-24T00:31:56;21.10;70.90
75719;DHT22;64340;48.534;-3.036;2023-08-24T00:34:22;21.10;70.80
75719;DHT22;64340;48.534;-3.036;2023-08-24T00:36:48;21.10;70.80
75719;DHT22;64340;48.534;-3.036;2023-08-24T00:39:14;21.10;70.80
75719;DHT22;64340;48.534;-3.036;2023-08-24T00:41:40;21.10;70.90
75719;DHT22;64340;48.534;-3.036;2023-08-24T00:44:06;21.10;70.80
75719;DHT22;64340;48.534;-3.036;2023-08-24T00:46:33;21.10;70.80
75719;DHT22;64340;48.534;-3.036;2023-08-24T00:48:59;21.10;70.80
75719;DHT22;64340;48.534;-3.036;2023-08-24T00:51:25;21.10;70.80
75719;DHT22;64340;48.534;-3.036;2023-08-24T00:53:50;21.10;70.80
75719;DHT22;64340;48.534;-3.036;2023-08-24T00:56:16;21.10;70.90
75719;DHT22;64340;48.534;-3.036;2023-08-24T00:58:42;21.10;70.80
75719;DHT22;64340;48.534;-3.036;2023-08-24T01:01:08;21.10;70.80
75719;DHT22;64340;48.534;-3.036;2023-08-24T01:03:34;21.00;70.90
75719;DHT22;64340;48.534;-3.036;2023-08-24T01:05:59;21.00;70.90
75719;DHT22;64340;48.534;-3.036;2023-08-24T01:08:25;21.10;70.90
75719;DHT22;64340;48.534;-3.036;2023-08-24T01:13:28;21.10;70.80
75719;DHT22;64340;48.534;-3.036;2023-08-24T01:15:57;21.00;70.80
75719;DHT22;64340;48.534;-3.036;2023-08-24T01:18:23;21.00;70.90
75719;DHT22;64340;48.534;-3.036;2023-08-24T01:20:52;21.00;71.00
75719;DHT22;64340;48.534;-3.036;2023-08-24T01:23:41;21.00;71.00
75719;DHT22;64340;48.534;-3.036;2023-08-24T01:26:18;21.00;71.00
75719;DHT22;64340;48.534;-3.036;2023-08-24T01:28:44;21.00;71.00
75719;DHT22;64340;48.534;-3.036;2023-08-24T01:31:13;21.00;71.00
75719;DHT22;64340;48.534;-3.036;2023-08-24T01:33:39;21.00;71.00
75719;DHT22;64340;48.534;-3.036;2023-08-24T01:36:05;21.00;71.00
75719;DHT22;64340;48.534;-3.036;2023-08-24T01:38:30;21.00;71.00
75719;DHT22;64340;48.534;-3.036;2023-08-24T01:43:31;21.00;71.10
75719;DHT22;64340;48.534;-3.036;2023-08-24T01:46:04;21.00;71.00
75719;DHT22;64340;48.534;-3.036;2023-08-24T01:48:30;21.00;71.00
75719;DHT22;64340;48.534;-3.036;2023-08-24T01:50:57;21.00;70.90
75719;DHT22;64340;48.534;-3.036;2023-08-24T01:53:23;21.00;71.00
75719;DHT22;64340;48.534;-3.036;2023-08-24T01:55:48;21.00;71.10
75719;DHT22;64340;48.534;-3.036;2023-08-24T01:58:15;21.00;71.10
75719;DHT22;64340;48.534;-3.036;2023-08-24T02:00:40;21.00;71.20
75719;DHT22;64340;48.534;-3.036;2023-08-24T02:03:06;21.00;71.30
75719;DHT22;64340;48.534;-3.036;2023-08-24T02:05:32;21.00;71.40
75719;DHT22;64340;48.534;-3.036;2023-08-24T02:07:58;21.00;71.40
75719;DHT22;64340;48.534;-3.036;2023-08-24T02:10:25;21.00;71.40
75719;DHT22;64340;48.534;-3.036;2023-08-24T02:12:51;21.00;71.40
75719;DHT22;64340;48.534;-3.036;2023-08-24T02:15:17;21.00;71.50
75719;DHT22;64340;48.534;-3.036;2023-08-24T02:17:42;21.00;71.40
75719;DHT22;64340;48.534;-3.036;2023-08-24T02:20:09;21.00;72.60
75719;DHT22;64340;48.534;-3.036;2023-08-24T02:22:34;20.90;73.60
75719;DHT22;64340;48.534;-3.036;2023-08-24T02:25:00;20.80;74.10
75719;DHT22;64340;48.534;-3.036;2023-08-24T02:27:28;20.70;74.70
75719;DHT22;64340;48.534;-3.036;2023-08-24T02:29:53;20.60;74.90
75719;DHT22;64340;48.534;-3.036;2023-08-24T02:32:19;20.70;74.20
75719;DHT22;64340;48.534;-3.036;2023-08-24T02:34:45;20.80;73.50
75719;DHT22;64340;48.534;-3.036;2023-08-24T02:37:10;20.80;73.40
75719;DHT22;64340;48.534;-3.036;2023-08-24T02:39:36;20.90;73.30
75719;DHT22;64340;48.534;-3.036;2023-08-24T02:42:01;20.90;73.10
75719;DHT22;64340;48.534;-3.036;2023-08-24T02:44:27;20.90;73.20
75719;DHT22;64340;48.534;-3.036;2023-08-24T02:46:53;20.90;73.20
75719;DHT22;64340;48.534;-3.036;2023-08-24T02:49:19;20.90;73.30
75719;DHT22;64340;48.534;-3.036;2023-08-24T02:51:46;20.90;73.00
75719;DHT22;64340;48.534;-3.036;2023-08-24T02:54:11;20.90;73.10
75719;DHT22;64340;48.534;-3.036;2023-08-24T02:56:37;21.00;72.90
75719;DHT22;64340;48.534;-3.036;2023-08-24T02:59:03;21.00;72.90
75719;DHT22;64340;48.534;-3.036;2023-08-24T03:01:28;21.00;72.70
75719;DHT22;64340;48.534;-3.036;2023-08-24T03:03:54;21.00;72.80
75719;DHT22;64340;48.534;-3.036;2023-08-24T03:06:20;21.00;72.60
75719;DHT22;64340;48.534;-3.036;2023-08-24T03:08:45;21.00;72.80
75719;DHT22;64340;48.534;-3.036;2023-08-24T03:11:11;21.00;72.80
75719;DHT22;64340;48.534;-3.036;2023-08-24T03:13:36;21.00;73.00
75719;DHT22;64340;48.534;-3.036;2023-08-24T03:16:04;20.90;72.90
75719;DHT22;64340;48.534;-3.036;2023-08-24T03:18:30;20.90;73.10
75719;DHT22;64340;48.534;-3.036;2023-08-24T03:20:56;20.90;73.00
75719;DHT22;64340;48.534;-3.036;2023-08-24T03:23:22;20.90;72.90
75719;DHT22;64340;48.534;-3.036;2023-08-24T03:25:47;21.00;72.70
75719;DHT22;64340;48.534;-3.036;2023-08-24T03:28:13;20.90;72.60
75719;DHT22;64340;48.534;-3.036;2023-08-24T03:30:46;21.00;72.70
75719;DHT22;64340;48.534;-3.036;2023-08-24T03:33:12;20.90;72.80
75719;DHT22;64340;48.534;-3.036;2023-08-24T03:35:37;20.90;72.80
75719;DHT22;64340;48.534;-3.036;2023-08-24T03:38:03;20.90;73.00
75719;DHT22;64340;48.534;-3.036;2023-08-24T03:40:29;20.90;72.90
75719;DHT22;64340;48.534;-3.036;2023-08-24T03:42:55;20.90;72.90
75719;DHT22;64340;48.534;-3.036;2023-08-24T03:45:21;20.90;73.00
75719;DHT22;64340;48.534;-3.036;2023-08-24T03:47:47;20.90;73.00
75719;DHT22;64340;48.534;-3.036;2023-08-24T03:50:13;20.90;73.10
75719;DHT22;64340;48.534;-3.036;2023-08-24T03:52:39;20.90;73.00
75719;DHT22;64340;48.534;-3.036;2023-08-24T03:55:05;20.90;73.10
75719;DHT22;64340;48.534;-3.036;2023-08-24T03:57:31;20.90;73.10
75719;DHT22;64340;48.534;-3.036;2023-08-24T03:59:57;20.90;73.00
75719;DHT22;64340;48.534;-3.036;2023-08-24T04:02:23;20.90;73.00
75719;DHT22;64340;48.534;-3.036;2023-08-24T04:04:49;20.90;73.10
75719;DHT22;64340;48.534;-3.036;2023-08-24T04:07:14;20.90;73.30
75719;DHT22;64340;48.534;-3.036;2023-08-24T04:09:40;20.90;73.40
75719;DHT22;64340;48.534;-3.036;2023-08-24T04:12:05;20.90;73.50
75719;DHT22;64340;48.534;-3.036;2023-08-24T04:14:31;20.90;73.30
75719;DHT22;64340;48.534;-3.036;2023-08-24T04:16:57;20.90;73.40
75719;DHT22;64340;48.534;-3.036;2023-08-24T04:19:22;20.90;73.40
75719;DHT22;64340;48.534;-3.036;2023-08-24T04:21:48;20.90;73.50
75719;DHT22;64340;48.534;-3.036;2023-08-24T04:24:13;20.90;73.30
75719;DHT22;64340;48.534;-3.036;2023-08-24T04:26:39;20.90;73.20
75719;DHT22;64340;48.534;-3.036;2023-08-24T04:29:04;20.90;73.20
75719;DHT22;64340;48.534;-3.036;2023-08-24T04:31:30;20.90;73.20
75719;DHT22;64340;48.534;-3.036;2023-08-24T04:33:56;20.90;73.30
75719;DHT22;64340;48.534;-3.036;2023-08-24T04:36:21;20.90;74.10
75719;DHT22;64340;48.534;-3.036;2023-08-24T04:38:47;20.70;74.40
75719;DHT22;64340;48.534;-3.036;2023-08-24T04:41:12;20.60;75.00
75719;DHT22;64340;48.534;-3.036;2023-08-24T04:43:38;20.50;75.20
75719;DHT22;64340;48.534;-3.036;2023-08-24T04:46:03;20.50;75.30
75719;DHT22;64340;48.534;-3.036;2023-08-24T04:48:29;20.50;75.70
75719;DHT22;64340;48.534;-3.036;2023-08-24T04:51:00;20.50;75.00
75719;DHT22;64340;48.534;-3.036;2023-08-24T04:53:26;20.60;74.60
75719;DHT22;64340;48.534;-3.036;2023-08-24T04:55:51;20.70;74.20
75719;DHT22;64340;48.534;-3.036;2023-08-24T04:58:17;20.80;74.10
75719;DHT22;64340;48.534;-3.036;2023-08-24T05:00:43;20.80;74.10
75719;DHT22;64340;48.534;-3.036;2023-08-24T05:03:08;20.90;74.00
75719;DHT22;64340;48.534;-3.036;2023-08-24T05:05:34;20.90;74.20
75719;DHT22;64340;48.534;-3.036;2023-08-24T05:08:01;20.90;73.90
75719;DHT22;64340;48.534;-3.036;2023-08-24T05:10:29;20.80;74.00
75719;DHT22;64340;48.534;-3.036;2023-08-24T05:12:55;20.90;73.90
75719;DHT22;64340;48.534;-3.036;2023-08-24T05:15:21;20.90;73.90
75719;DHT22;64340;48.534;-3.036;2023-08-24T05:17:46;20.90;73.90
75719;DHT22;64340;48.534;-3.036;2023-08-24T05:20:12;20.80;74.00
75719;DHT22;64340;48.534;-3.036;2023-08-24T05:22:41;20.90;73.90
75719;DHT22;64340;48.534;-3.036;2023-08-24T05:25:06;20.90;74.00
75719;DHT22;64340;48.534;-3.036;2023-08-24T05:27:32;20.80;74.00
75719;DHT22;64340;48.534;-3.036;2023-08-24T05:29:58;20.80;74.10
75719;DHT22;64340;48.534;-3.036;2023-08-24T05:32:23;20.80;74.20
75719;DHT22;64340;48.534;-3.036;2023-08-24T05:34:49;20.80;74.10
75719;DHT22;64340;48.534;-3.036;2023-08-24T05:37:15;20.80;74.00
75719;DHT22;64340;48.534;-3.036;2023-08-24T05:39:40;20.80;74.00
75719;DHT22;64340;48.534;-3.036;2023-08-24T05:42:06;20.80;73.90
75719;DHT22;64340;48.534;-3.036;2023-08-24T05:44:32;20.80;74.10
75719;DHT22;64340;48.534;-3.036;2023-08-24T05:46:57;20.80;74.20
75719;DHT22;64340;48.534;-3.036;2023-08-24T05:49:23;20.80;74.00
75719;DHT22;64340;48.534;-3.036;2023-08-24T05:51:50;20.80;73.90
75719;DHT22;64340;48.534;-3.036;2023-08-24T05:54:16;20.80;73.90
75719;DHT22;64340;48.534;-3.036;2023-08-24T05:56:45;20.80;73.60
75719;DHT22;64340;48.534;-3.036;2023-08-24T05:59:10;20.90;73.80
75719;DHT22;64340;48.534;-3.036;2023-08-24T06:01:36;20.90;73.70
75719;DHT22;64340;48.534;-3.036;2023-08-24T06:04:05;20.90;73.70
75719;DHT22;64340;48.534;-3.036;2023-08-24T06:06:31;20.90;73.60
75719;DHT22;64340;48.534;-3.036;2023-08-24T06:08:56;20.80;73.70
75719;DHT22;64340;48.534;-3.036;2023-08-24T06:11:22;20.90;73.90
75719;DHT22;64340;48.534;-3.036;2023-08-24T06:13:48;20.90;74.00
75719;DHT22;64340;48.534;-3.036;2023-08-24T06:16:14;20.90;74.00
75719;DHT22;64340;48.534;-3.036;2023-08-24T06:18:39;20.80;74.00
75719;DHT22;64340;48.534;-3.036;2023-08-24T06:21:05;20.90;73.80
75719;DHT22;64340;48.534;-3.036;2023-08-24T06:23:30;20.90;73.80
75719;DHT22;64340;48.534;-3.036;2023-08-24T06:25:56;20.80;74.20
75719;DHT22;64340;48.534;-3.036;2023-08-24T06:28:21;20.80;74.10
75719;DHT22;64340;48.534;-3.036;2023-08-24T06:30:47;20.80;74.00
75719;DHT22;64340;48.534;-3.036;2023-08-24T06:33:13;20.90;74.10
75719;DHT22;64340;48.534;-3.036;2023-08-24T06:35:38;20.90;74.00
75719;DHT22;64340;48.534;-3.036;2023-08-24T06:38:05;20.90;74.20
75719;DHT22;64340;48.534;-3.036;2023-08-24T06:40:31;20.90;74.20
75719;DHT22;64340;48.534;-3.036;2023-08-24T06:42:57;20.80;74.40
75719;DHT22;64340;48.534;-3.036;2023-08-24T06:45:22;20.80;74.30
75719;DHT22;64340;48.534;-3.036;2023-08-24T06:47:48;20.80;74.40
75719;DHT22;64340;48.534;-3.036;2023-08-24T06:50:14;20.80;74.30
75719;DHT22;64340;48.534;-3.036;2023-08-24T06:52:41;20.90;74.20
75719;DHT22;64340;48.534;-3.036;2023-08-24T06:55:08;20.90;74.20
75719;DHT22;64340;48.534;-3.036;2023-08-24T06:57:34;20.80;74.40
75719;DHT22;64340;48.534;-3.036;2023-08-24T06:59:59;20.90;74.50
75719;DHT22;64340;48.534;-3.036;2023-08-24T07:02:25;20.90;74.40
75719;DHT22;64340;48.534;-3.036;2023-08-24T07:04:51;20.90;74.30
75719;DHT22;64340;48.534;-3.036;2023-08-24T07:07:16;20.90;74.40
75719;DHT22;64340;48.534;-3.036;2023-08-24T07:09:42;20.90;74.40
75719;DHT22;64340;48.534;-3.036;2023-08-24T07:12:08;20.90;74.40
75719;DHT22;64340;48.534;-3.036;2023-08-24T07:14:36;20.90;74.20
75719;DHT22;64340;48.534;-3.036;2023-08-24T07:17:01;20.90;74.50
75719;DHT22;64340;48.534;-3.036;2023-08-24T07:19:28;20.90;74.70
75719;DHT22;64340;48.534;-3.036;2023-08-24T07:21:53;20.90;74.60
75719;DHT22;64340;48.534;-3.036;2023-08-24T07:24:19;20.90;74.60
75719;DHT22;64340;48.534;-3.036;2023-08-24T07:26:46;20.90;74.70
75719;DHT22;64340;48.534;-3.036;2023-08-24T07:29:11;20.90;74.50
75719;DHT22;64340;48.534;-3.036;2023-08-24T07:31:37;20.90;74.70
75719;DHT22;64340;48.534;-3.036;2023-08-24T07:34:03;20.90;75.20
75719;DHT22;64340;48.534;-3.036;2023-08-24T07:36:29;20.90;75.90
75719;DHT22;64340;48.534;-3.036;2023-08-24T07:38:55;20.80;76.50
75719;DHT22;64340;48.534;-3.036;2023-08-24T07:41:21;20.50;78.80
75719;DHT22;64340;48.534;-3.036;2023-08-24T07:43:46;19.90;80.80
75719;DHT22;64340;48.534;-3.036;2023-08-24T07:46:12;19.60;81.60
75719;DHT22;64340;48.534;-3.036;2023-08-24T07:48:38;20.00;79.80
75719;DHT22;64340;48.534;-3.036;2023-08-24T07:51:03;20.30;78.50
75719;DHT22;64340;48.534;-3.036;2023-08-24T07:53:29;20.50;77.20
75719;DHT22;64340;48.534;-3.036;2023-08-24T07:55:55;20.70;76.50
75719;DHT22;64340;48.534;-3.036;2023-08-24T07:58:23;20.80;76.30
75719;DHT22;64340;48.534;-3.036;2023-08-24T08:00:51;20.90;76.40
75719;DHT22;64340;48.534;-3.036;2023-08-24T08:03:20;20.90;76.10
75719;DHT22;64340;48.534;-3.036;2023-08-24T08:05:46;21.00;76.20
75719;DHT22;64340;48.534;-3.036;2023-08-24T08:08:15;21.00;75.80
75719;DHT22;64340;48.534;-3.036;2023-08-24T08:10:41;21.00;75.80
75719;DHT22;64340;48.534;-3.036;2023-08-24T08:13:07;21.00;76.00
75719;DHT22;64340;48.534;-3.036;2023-08-24T08:15:33;21.00;75.70
75719;DHT22;64340;48.534;-3.036;2023-08-24T08:17:59;21.00;75.50
75719;DHT22;64340;48.534;-3.036;2023-08-24T08:20:25;21.00;75.70
75719;DHT22;64340;48.534;-3.036;2023-08-24T08:22:50;21.10;75.50
75719;DHT22;64340;48.534;-3.036;2023-08-24T08:25:16;21.10;75.30
75719;DHT22;64340;48.534;-3.036;2023-08-24T08:27:44;21.10;75.50
75719;DHT22;64340;48.534;-3.036;2023-08-24T08:30:10;21.00;75.60
75719;DHT22;64340;48.534;-3.036;2023-08-24T08:32:36;21.10;75.60
75719;DHT22;64340;48.534;-3.036;2023-08-24T08:35:01;21.10;75.60
75719;DHT22;64340;48.534;-3.036;2023-08-24T08:37:32;21.10;75.70
75719;DHT22;64340;48.534;-3.036;2023-08-24T08:39:58;21.10;75.70
75719;DHT22;64340;48.534;-3.036;2023-08-24T08:42:23;21.10;71.20
75719;DHT22;64340;48.534;-3.036;2023-08-24T08:44:49;21.10;74.10
75719;DHT22;64340;48.534;-3.036;2023-08-24T08:47:15;21.10;75.30
75719;DHT22;64340;48.534;-3.036;2023-08-24T08:49:42;21.10;76.10
75719;DHT22;64340;48.534;-3.036;2023-08-24T08:52:08;21.10;76.40
75719;DHT22;64340;48.534;-3.036;2023-08-24T08:54:34;21.10;76.40
75719;DHT22;64340;48.534;-3.036;2023-08-24T08:57:00;21.10;76.60
75719;DHT22;64340;48.534;-3.036;2023-08-24T08:59:29;21.10;76.60
75719;DHT22;64340;48.534;-3.036;2023-08-24T09:02:02;21.10;76.70
75719;DHT22;64340;48.534;-3.036;2023-08-24T09:04:31;21.20;76.50
75719;DHT22;64340;48.534;-3.036;2023-08-24T09:06:57;21.20;76.30
75719;DHT22;64340;48.534;-3.036;2023-08-24T09:09:24;21.30;76.20
75719;DHT22;64340;48.534;-3.036;2023-08-24T09:11:49;21.30;76.00
75719;DHT22;64340;48.534;-3.036;2023-08-24T09:14:15;21.30;76.00
75719;DHT22;64340;48.534;-3.036;2023-08-24T09:16:41;21.30;76.00
75719;DHT22;64340;48.534;-3.036;2023-08-24T09:19:06;21.30;75.80
75719;DHT22;64340;48.534;-3.036;2023-08-24T09:21:36;21.30;75.60
75719;DHT22;64340;48.534;-3.036;2023-08-24T09:24:02;21.40;75.50
75719;DHT22;64340;48.534;-3.036;2023-08-24T09:26:35;21.40;75.50
75719;DHT22;64340;48.534;-3.036;2023-08-24T09:29:20;21.40;75.60
75719;DHT22;64340;48.534;-3.036;2023-08-24T09:31:46;21.40;75.50
75719;DHT22;64340;48.534;-3.036;2023-08-24T09:34:15;21.40;75.20
75719;DHT22;64340;48.534;-3.036;2023-08-24T09:36:44;21.50;75.10
75719;DHT22;64340;48.534;-3.036;2023-08-24T09:39:10;21.50;74.80
75719;DHT22;64340;48.534;-3.036;2023-08-24T09:41:39;21.50;74.70
75719;DHT22;64340;48.534;-3.036;2023-08-24T09:44:05;21.50;75.10
75719;DHT22;64340;48.534;-3.036;2023-08-24T09:46:31;21.50;75.20
75719;DHT22;64340;48.534;-3.036;2023-08-24T09:48:56;21.50;74.80
75719;DHT22;64340;48.534;-3.036;2023-08-24T09:51:26;21.60;74.40
75719;DHT22;64340;48.534;-3.036;2023-08-24T09:53:52;21.60;74.20
75719;DHT22;64340;48.534;-3.036;2023-08-24T09:56:18;21.70;74.20
75719;DHT22;64340;48.534;-3.036;2023-08-24T09:58:45;21.70;74.10
75719;DHT22;64340;48.534;-3.036;2023-08-24T10:01:11;21.70;74.40
75719;DHT22;64340;48.534;-3.036;2023-08-24T10:03:37;21.70;74.20
75719;DHT22;64340;48.534;-3.036;2023-08-24T10:06:05;21.70;74.20
75719;DHT22;64340;48.534;-3.036;2023-08-24T10:08:34;21.70;74.10
75719;DHT22;64340;48.534;-3.036;2023-08-24T10:11:01;21.80;73.70
75719;DHT22;64340;48.534;-3.036;2023-08-24T10:14:12;21.90;73.80
75719;DHT22;64340;48.534;-3.036;2023-08-24T10:16:16;21.80;74.30
75719;DHT22;64340;48.534;-3.036;2023-08-24T10:18:45;21.80;74.10
75719;DHT22;64340;48.534;-3.036;2023-08-24T10:21:11;21.90;74.60
75719;DHT22;64340;48.534;-3.036;2023-08-24T10:23:36;21.90;74.20
75719;DHT22;64340;48.534;-3.036;2023-08-24T10:26:02;21.90;74.30
75719;DHT22;64340;48.534;-3.036;2023-08-24T10:28:29;21.90;74.70
75719;DHT22;64340;48.534;-3.036;2023-08-24T10:30:55;21.90;76.00
75719;DHT22;64340;48.534;-3.036;2023-08-24T10:33:21;21.90;75.00
75719;DHT22;64340;48.534;-3.036;2023-08-24T10:35:47;21.90;74.70
75719;DHT22;64340;48.534;-3.036;2023-08-24T10:38:22;22.00;75.40
75719;DHT22;64340;48.534;-3.036;2023-08-24T10:40:50;22.00;74.80
75719;DHT22;64340;48.534;-3.036;2023-08-24T10:43:16;22.00;75.20
75719;DHT22;64340;48.534;-3.036;2023-08-24T10:45:58;22.10;75.20
75719;DHT22;64340;48.534;-3.036;2023-08-24T10:48:24;22.10;75.00
75719;DHT22;64340;48.534;-3.036;2023-08-24T10:53:37;22.10;75.50
75719;DHT22;64340;48.534;-3.036;2023-08-24T10:56:15;22.10;76.00
75719;DHT22;64340;48.534;-3.036;2023-08-24T10:58:42;22.10;76.50
75719;DHT22;64340;48.534;-3.036;2023-08-24T11:01:13;22.10;76.20
75719;DHT22;64340;48.534;-3.036;2023-08-24T11:03:39;22.10;77.30
75719;DHT22;64340;48.534;-3.036;2023-08-24T11:06:17;22.10;76.50
75719;DHT22;64340;48.534;-3.036;2023-08-24T11:08:46;22.10;77.70
75719;DHT22;64340;48.534;-3.036;2023-08-24T11:11:19;22.10;77.70
75719;DHT22;64340;48.534;-3.036;2023-08-24T11:14:18;22.10;80.00
75719;DHT22;64340;48.534;-3.036;2023-08-24T11:16:46;22.10;79.60
75719;DHT22;64340;48.534;-3.036;2023-08-24T11:19:12;22.20;81.20
75719;DHT22;64340;48.534;-3.036;2023-08-24T11:21:44;22.10;81.60
75719;DHT22;64340;48.534;-3.036;2023-08-24T11:24:10;22.20;81.80
75719;DHT22;64340;48.534;-3.036;2023-08-24T11:26:44;22.20;81.30
75719;DHT22;64340;48.534;-3.036;2023-08-24T11:29:10;22.20;80.80
75719;DHT22;64340;48.534;-3.036;2023-08-24T11:31:36;22.30;80.10
75719;DHT22;64340;48.534;-3.036;2023-08-24T11:34:02;22.50;79.60
75719;DHT22;64340;48.534;-3.036;2023-08-24T11:36:28;22.50;78.90
75719;DHT22;64340;48.534;-3.036;2023-08-24T11:38:56;22.50;78.50
75719;DHT22;64340;48.534;-3.036;2023-08-24T11:41:22;22.60;78.60
75719;DHT22;64340;48.534;-3.036;2023-08-24T11:43:48;22.50;79.10
75719;DHT22;64340;48.534;-3.036;2023-08-24T11:46:16;22.60;79.00
75719;DHT22;64340;48.534;-3.036;2023-08-24T11:48:42;22.60;78.50
75719;DHT22;64340;48.534;-3.036;2023-08-24T11:51:08;22.60;78.70
75719;DHT22;64340;48.534;-3.036;2023-08-24T11:53:37;22.70;78.50
75719;DHT22;64340;48.534;-3.036;2023-08-24T11:56:02;22.60;78.20
75719;DHT22;64340;48.534;-3.036;2023-08-24T11:58:28;22.60;79.10
75719;DHT22;64340;48.534;-3.036;2023-08-24T12:00:54;22.50;78.80
75719;DHT22;64340;48.534;-3.036;2023-08-24T12:03:19;22.50;79.50
75719;DHT22;64340;48.534;-3.036;2023-08-24T12:05:45;22.40;79.10
75719;DHT22;64340;48.534;-3.036;2023-08-24T12:08:11;22.40;78.60
75719;DHT22;64340;48.534;-3.036;2023-08-24T12:10:41;22.30;78.70
75719;DHT22;64340;48.534;-3.036;2023-08-24T12:13:06;22.40;78.20
75719;DHT22;64340;48.534;-3.036;2023-08-24T12:15:35;22.40;77.90
75719;DHT22;64340;48.534;-3.036;2023-08-24T12:18:13;22.40;77.80
75719;DHT22;64340;48.534;-3.036;2023-08-24T12:20:42;22.40;77.70
75719;DHT22;64340;48.534;-3.036;2023-08-24T12:23:09;22.40;77.60
75719;DHT22;64340;48.534;-3.036;2023-08-24T12:25:38;22.50;77.40
75719;DHT22;64340;48.534;-3.036;2023-08-24T12:28:08;22.50;77.30
75719;DHT22;64340;48.534;-3.036;2023-08-24T12:33:20;22.50;76.80
75719;DHT22;64340;48.534;-3.036;2023-08-24T12:35:46;22.50;76.60
75719;DHT22;64340;48.534;-3.036;2023-08-24T12:38:11;22.50;76.40
75719;DHT22;64340;48.534;-3.036;2023-08-24T12:40:37;22.50;77.10
75719;DHT22;64340;48.534;-3.036;2023-08-24T12:43:02;22.50;76.80
75719;DHT22;64340;48.534;-3.036;2023-08-24T12:45:28;22.50;76.60
75719;DHT22;64340;48.534;-3.036;2023-08-24T12:47:54;22.50;76.50
75719;DHT22;64340;48.534;-3.036;2023-08-24T12:50:19;22.50;76.50
75719;DHT22;64340;48.534;-3.036;2023-08-24T12:52:45;22.50;76.60
75719;DHT22;64340;48.534;-3.036;2023-08-24T12:55:11;22.60;76.00
75719;DHT22;64340;48.534;-3.036;2023-08-24T12:57:36;22.50;74.60
75719;DHT22;64340;48.534;-3.036;2023-08-24T13:00:02;22.50;74.50
75719;DHT22;64340;48.534;-3.036;2023-08-24T13:02:28;22.50;74.60
75719;DHT22;64340;48.534;-3.036;2023-08-24T13:04:54;22.50;74.60
75719;DHT22;64340;48.534;-3.036;2023-08-24T13:07:20;22.50;74.70
75719;DHT22;64340;48.534;-3.036;2023-08-24T13:09:46;22.50;74.60
75719;DHT22;64340;48.534;-3.036;2023-08-24T13:12:11;22.50;74.10
75719;DHT22;64340;48.534;-3.036;2023-08-24T13:14:37;22.40;73.80
75719;DHT22;64340;48.534;-3.036;2023-08-24T13:17:03;22.30;74.30
75719;DHT22;64340;48.534;-3.036;2023-08-24T13:19:29;22.30;73.90
75719;DHT22;64340;48.534;-3.036;2023-08-24T13:21:54;22.20;74.20
75719;DHT22;64340;48.534;-3.036;2023-08-24T13:24:20;22.20;73.50
75719;DHT22;64340;48.534;-3.036;2023-08-24T13:26:45;22.10;73.70
75719;DHT22;64340;48.534;-3.036;2023-08-24T13:29:11;22.10;73.80
75719;DHT22;64340;48.534;-3.036;2023-08-24T13:31:36;22.10;73.90
75719;DHT22;64340;48.534;-3.036;2023-08-24T13:34:02;22.10;73.70
75719;DHT22;64340;48.534;-3.036;2023-08-24T13:36:33;22.10;73.20
75719;DHT22;64340;48.534;-3.036;2023-08-24T13:38:58;22.10;73.00
75719;DHT22;64340;48.534;-3.036;2023-08-24T13:41:24;22.10;73.00
75719;DHT22;64340;48.534;-3.036;2023-08-24T13:43:49;22.10;72.60
75719;DHT22;64340;48.534;-3.036;2023-08-24T13:46:15;22.10;72.60
75719;DHT22;64340;48.534;-3.036;2023-08-24T13:48:41;22.00;72.80
75719;DHT22;64340;48.534;-3.036;2023-08-24T13:51:06;22.10;72.30
75719;DHT22;64340;48.534;-3.036;2023-08-24T13:53:33;22.10;72.30
75719;DHT22;64340;48.534;-3.036;2023-08-24T13:55:59;22.10;72.30
75719;DHT22;64340;48.534;-3.036;2023-08-24T13:58:24;22.00;72.50
75719;DHT22;64340;48.534;-3.036;2023-08-24T14:00:57;22.10;72.50
75719;DHT22;64340;48.534;-3.036;2023-08-24T14:03:28;22.10;72.40
75719;DHT22;64340;48.534;-3.036;2023-08-24T14:05:57;22.10;71.50
75719;DHT22;64340;48.534;-3.036;2023-08-24T14:08:22;22.10;71.70
75719;DHT22;64340;48.534;-3.036;2023-08-24T14:10:48;22.10;71.90
75719;DHT22;64340;48.534;-3.036;2023-08-24T14:13:14;22.20;71.60
75719;DHT22;64340;48.534;-3.036;2023-08-24T14:15:40;22.20;71.70
75719;DHT22;64340;48.534;-3.036;2023-08-24T14:18:05;22.20;70.70
75719;DHT22;64340;48.534;-3.036;2023-08-24T14:20:31;22.20;70.80
75719;DHT22;64340;48.534;-3.036;2023-08-24T14:22:57;22.20;69.80
75719;DHT22;64340;48.534;-3.036;2023-08-24T14:25:22;22.20;69.30
75719;DHT22;64340;48.534;-3.036;2023-08-24T14:27:48;22.10;68.80
75719;DHT22;64340;48.534;-3.036;2023-08-24T14:30:14;22.10;68.10
75719;DHT22;64340;48.534;-3.036;2023-08-24T14:32:40;22.10;67.20
75719;DHT22;64340;48.534;-3.036;2023-08-24T14:35:05;22.00;67.40
75719;DHT22;64340;48.534;-3.036;2023-08-24T14:37:31;22.00;67.00
75719;DHT22;64340;48.534;-3.036;2023-08-24T14:39:58;21.90;67.30
75719;DHT22;64340;48.534;-3.036;2023-08-24T14:42:24;21.90;66.60
75719;DHT22;64340;48.534;-3.036;2023-08-24T14:44:50;21.90;67.20
75719;DHT22;64340;48.534;-3.036;2023-08-24T14:47:15;21.80;66.80
75719;DHT22;64340;48.534;-3.036;2023-08-24T14:49:41;21.70;67.00
75719;DHT22;64340;48.534;-3.036;2023-08-24T14:52:07;21.70;66.70
75719;DHT22;64340;48.534;-3.036;2023-08-24T14:54:32;21.60;67.00
75719;DHT22;64340;48.534;-3.036;2023-08-24T14:56:58;21.60;67.30
75719;DHT22;64340;48.534;-3.036;2023-08-24T14:59:25;21.50;67.40
75719;DHT22;64340;48.534;-3.036;2023-08-24T15:01:51;21.50;67.30
75719;DHT22;64340;48.534;-3.036;2023-08-24T15:04:19;21.50;66.80
75719;DHT22;64340;48.534;-3.036;2023-08-24T15:06:45;21.40;67.60
75719;DHT22;64340;48.534;-3.036;2023-08-24T15:09:10;21.40;68.00
75719;DHT22;64340;48.534;-3.036;2023-08-24T15:11:36;21.40;68.10
75719;DHT22;64340;48.534;-3.036;2023-08-24T15:14:05;21.30;68.30
75719;DHT22;64340;48.534;-3.036;2023-08-24T15:16:32;21.30;68.80
75719;DHT22;64340;48.534;-3.036;2023-08-24T15:18:58;21.30;68.70
75719;DHT22;64340;48.534;-3.036;2023-08-24T15:21:25;21.30;69.00